Time;durP1;ratioP1;P1;durP2;ratioP2;P2;SDS_P1;SDS_P2;PMS_P1;PMS_P2;Temp;Humidity;BMP_temperature;BMP_pressure;BME280_temperature;BME280_humidity;BME280_pressure;Samples;Min_cycle;Max_cycle;Signal;HPM_P1;HPM_P2
2021/12/15 00:00:58;;;;;;;26.00;15.37;;;;;;;;;;5049881;28;20399;-55
2021/12/15 00:03:24;;;;;;;25.40;15.30;;;;;;;;;;5050083;28;20808;-54
2021/12/15 00:05:51;;;;;;;24.13;15.80;;;;;;;;;;5049962;28;20438;-54
2021/12/15 00:08:17;;;;;;;25.23;15.30;;;;;;;;;;5049775;28;20404;-54
2021/12/15 00:10:46;;;;;;;25.63;15.40;;;;;;;;;;5050279;28;20447;-57
2021/12/15 00:13:13;;;;;;;28.70;17.50;;;;;;;;;;5050081;28;20979;-56
2021/12/15 00:15:40;;;;;;;25.97;15.90;;;;;;;;;;5049830;28;20422;-57
2021/12/15 00:18:08;;;;;;;21.57;14.03;;;;;;;;;;5049957;28;20423;-53
2021/12/15 00:20:34;;;;;;;23.67;14.63;;;;;;;;;;5049747;28;20479;-54
2021/12/15 00:23:00;;;;;;;25.17;16.07;;;;;;;;;;5049838;28;20430;-59
2021/12/15 00:25:28;;;;;;;25.60;15.00;;;;;;;;;;5050000;28;21062;-59
2021/12/15 00:27:55;;;;;;;30.27;14.47;;;;;;;;;;5049833;28;20411;-61
2021/12/15 00:30:21;;;;;;;26.13;15.40;;;;;;;;;;5050052;28;20418;-58
2021/12/15 00:32:47;;;;;;;26.93;14.60;;;;;;;;;;5050175;28;20400;-59
2021/12/15 00:35:13;;;;;;;25.20;14.30;;;;;;;;;;5050382;28;20399;-59
2021/12/15 00:37:39;;;;;;;25.57;15.63;;;;;;;;;;5051714;28;20407;-60
2021/12/15 00:40:07;;;;;;;21.47;14.00;;;;;;;;;;5051649;28;20411;-65
2021/12/15 00:42:33;;;;;;;21.50;14.03;;;;;;;;;;5051500;28;20426;-61
2021/12/15 00:44:59;;;;;;;22.00;14.20;;;;;;;;;;5050111;28;20473;-67
2021/12/15 00:47:25;;;;;;;24.70;14.93;;;;;;;;;;5051515;28;20403;-62
2021/12/15 00:49:51;;;;;;;26.40;14.80;;;;;;;;;;5051523;28;20764;-64
2021/12/15 00:52:17;;;;;;;21.17;14.30;;;;;;;;;;5051389;28;20459;-56
2021/12/15 00:54:43;;;;;;;27.00;15.40;;;;;;;;;;5051738;28;20415;-61
2021/12/15 00:57:10;;;;;;;21.57;13.57;;;;;;;;;;5053878;28;20443;-62
2021/12/15 00:59:36;;;;;;;22.83;13.90;;;;;;;;;;5055088;28;20404;-67
2021/12/15 01:02:03;;;;;;;23.60;14.37;;;;;;;;;;5055140;28;20411;-62
2021/12/15 01:04:30;;;;;;;28.43;15.50;;;;;;;;;;5055192;28;20404;-58
2021/12/15 01:06:58;;;;;;;24.07;14.90;;;;;;;;;;5055227;28;20498;-61
2021/12/15 01:09:31;;;;;;;26.83;15.20;;;;;;;;;;5054790;28;20395;-57
2021/12/15 01:20:23;;;;;;;25.17;14.60;;;;;;;;;;5054791;28;20978;-56
2021/12/15 01:22:51;;;;;;;25.63;14.40;;;;;;;;;;5054948;28;20470;-60
2021/12/15 01:25:17;;;;;;;25.43;15.20;;;;;;;;;;5054507;28;20414;-54
2021/12/15 01:27:43;;;;;;;20.87;13.13;;;;;;;;;;5054631;28;20411;-54
2021/12/15 01:30:11;;;;;;;22.97;14.40;;;;;;;;;;5054557;28;20889;-53
2021/12/15 01:32:37;;;;;;;22.30;14.50;;;;;;;;;;5054357;28;20467;-58
2021/12/15 01:35:03;;;;;;;23.77;14.53;;;;;;;;;;5054366;28;20507;-56
2021/12/15 01:37:29;;;;;;;22.70;14.47;;;;;;;;;;5054344;28;20777;-55
2021/12/15 01:39:56;;;;;;;19.73;13.50;;;;;;;;;;5054597;28;20877;-57
2021/12/15 01:42:26;;;;;;;20.97;13.97;;;;;;;;;;5054376;28;20571;-58
2021/12/15 01:47:37;;;;;;;24.60;14.50;;;;;;;;;;5054451;28;20851;-59
2021/12/15 01:50:04;;;;;;;19.87;13.77;;;;;;;;;;5054118;28;20407;-54
2021/12/15 01:52:31;;;;;;;23.87;14.20;;;;;;;;;;5054000;28;20835;-56
2021/12/15 01:54:59;;;;;;;19.33;12.80;;;;;;;;;;5054222;28;20757;-57
2021/12/15 01:57:26;;;;;;;25.97;12.67;;;;;;;;;;5054165;28;20428;-59
2021/12/15 01:59:53;;;;;;;21.10;13.90;;;;;;;;;;5054199;28;20427;-53
2021/12/15 02:02:20;;;;;;;22.90;13.90;;;;;;;;;;5053896;28;20454;-55
2021/12/15 02:04:47;;;;;;;20.37;13.90;;;;;;;;;;5054124;28;20410;-54
2021/12/15 02:07:16;;;;;;;19.87;13.60;;;;;;;;;;5053724;28;20427;-60
2021/12/15 02:12:09;;;;;;;18.83;13.03;;;;;;;;;;5053654;28;20472;-63
2021/12/15 02:14:35;;;;;;;16.30;11.53;;;;;;;;;;5053576;28;20423;-67
2021/12/15 02:17:02;;;;;;;17.90;12.67;;;;;;;;;;5053555;28;20406;-63
2021/12/15 02:19:28;;;;;;;19.63;12.73;;;;;;;;;;5053276;28;20504;-56
2021/12/15 02:21:54;;;;;;;18.77;12.80;;;;;;;;;;5053538;28;20790;-60
2021/12/15 02:24:21;;;;;;;19.27;12.70;;;;;;;;;;5053475;28;20538;-53
2021/12/15 02:26:51;;;;;;;19.73;12.70;;;;;;;;;;5053408;28;20412;-57
2021/12/15 02:29:20;;;;;;;21.30;13.37;;;;;;;;;;5053723;28;20411;-56
2021/12/15 02:37:36;;;;;;;22.30;13.37;;;;;;;;;;5053322;28;20864;-53
2021/12/15 02:39:38;;;;;;;18.60;12.47;;;;;;;;;;5042275;28;20416;-57
2021/12/15 02:42:04;;;;;;;19.33;13.30;;;;;;;;;;5052977;28;20477;-55
2021/12/15 02:44:30;;;;;;;20.80;12.00;;;;;;;;;;5053069;28;20427;-56
2021/12/15 02:46:56;;;;;;;21.77;13.10;;;;;;;;;;5051622;28;20427;-58
2021/12/15 02:49:24;;;;;;;17.83;12.20;;;;;;;;;;5052979;28;20436;-62
2021/12/15 02:51:51;;;;;;;19.07;12.77;;;;;;;;;;5053665;28;20823;-55
2021/12/15 02:54:18;;;;;;;22.03;13.23;;;;;;;;;;5052949;28;20411;-53
2021/12/15 02:56:45;;;;;;;21.00;12.90;;;;;;;;;;5053372;28;20478;-57
2021/12/15 02:59:13;;;;;;;18.10;11.90;;;;;;;;;;5035416;28;20415;-56
2021/12/15 03:02:13;;;;;;;20.30;13.27;;;;;;;;;;5052850;28;20439;-57
2021/12/15 03:07:04;;;;;;;20.73;12.30;;;;;;;;;;5052877;28;20408;-56
2021/12/15 03:17:58;;;;;;;20.23;13.10;;;;;;;;;;5052796;28;20462;-53
2021/12/15 03:20:26;;;;;;;28.53;13.33;;;;;;;;;;5052285;28;20457;-55
2021/12/15 03:22:52;;;;;;;22.23;13.50;;;;;;;;;;5051232;28;20901;-54
2021/12/15 03:25:18;;;;;;;20.30;13.43;;;;;;;;;;5052300;28;20469;-53
2021/12/15 03:33:34;;;;;;;18.67;12.37;;;;;;;;;;5052523;28;20496;-55
2021/12/15 03:36:10;;;;;;;18.40;11.90;;;;;;;;;;5052471;28;20396;-57
2021/12/15 03:38:37;;;;;;;20.87;13.37;;;;;;;;;;5052387;28;20443;-55
2021/12/15 03:41:05;;;;;;;18.13;12.67;;;;;;;;;;5052198;28;20407;-55
2021/12/15 03:43:33;;;;;;;21.53;13.10;;;;;;;;;;5052309;28;20491;-54
2021/12/15 03:46:02;;;;;;;18.13;12.27;;;;;;;;;;5052514;28;20418;-55
2021/12/15 03:48:31;;;;;;;21.67;12.67;;;;;;;;;;5052230;28;20902;-54
2021/12/15 03:50:57;;;;;;;18.47;13.00;;;;;;;;;;5051938;28;20448;-55
2021/12/15 03:53:24;;;;;;;19.60;12.63;;;;;;;;;;5052355;28;20446;-55
2021/12/15 03:55:51;;;;;;;21.67;13.07;;;;;;;;;;5052120;28;20453;-60
2021/12/15 03:58:21;;;;;;;17.07;12.37;;;;;;;;;;5052214;28;20407;-58
2021/12/15 04:00:49;;;;;;;22.87;13.23;;;;;;;;;;5052118;28;20399;-57
2021/12/15 04:03:45;;;;;;;21.47;12.50;;;;;;;;;;5052129;28;20495;-55
2021/12/15 04:06:14;;;;;;;19.77;12.57;;;;;;;;;;5043708;28;20446;-56
2021/12/15 04:08:40;;;;;;;24.00;12.50;;;;;;;;;;5052124;28;20415;-54
2021/12/15 04:11:07;;;;;;;19.97;12.60;;;;;;;;;;5051743;28;20988;-54
2021/12/15 04:13:34;;;;;;;20.30;13.43;;;;;;;;;;5052004;28;20462;-56
2021/12/15 04:16:06;;;;;;;24.50;13.00;;;;;;;;;;5052031;28;20416;-59
2021/12/15 04:18:33;;;;;;;20.40;12.20;;;;;;;;;;5051945;28;20412;-61
2021/12/15 04:20:59;;;;;;;21.00;13.33;;;;;;;;;;5051646;28;20460;-61
2021/12/15 04:23:25;;;;;;;20.50;13.00;;;;;;;;;;5051752;28;20411;-58
2021/12/15 04:25:54;;;;;;;21.87;13.30;;;;;;;;;;5051672;28;20738;-55
2021/12/15 04:28:23;;;;;;;20.73;13.60;;;;;;;;;;5051715;28;20415;-55
2021/12/15 04:30:50;;;;;;;17.50;12.83;;;;;;;;;;5052827;28;20471;-62
2021/12/15 04:33:26;;;;;;;16.40;12.17;;;;;;;;;;5056209;28;20455;-55
2021/12/15 04:35:54;;;;;;;19.57;13.30;;;;;;;;;;5056131;28;20446;-63
2021/12/15 04:38:20;;;;;;;19.67;12.60;;;;;;;;;;5056460;28;20482;-58
2021/12/15 04:40:46;;;;;;;18.40;12.70;;;;;;;;;;5055916;28;20422;-59
2021/12/15 04:43:12;;;;;;;19.43;12.60;;;;;;;;;;5056196;28;20514;-56
2021/12/15 04:45:39;;;;;;;19.00;11.60;;;;;;;;;;5055800;28;20418;-60
2021/12/15 04:48:06;;;;;;;19.40;12.00;;;;;;;;;;5055807;28;20400;-66
2021/12/15 04:50:32;;;;;;;19.97;12.23;;;;;;;;;;5055631;28;20473;-56
2021/12/15 04:53:00;;;;;;;18.80;12.80;;;;;;;;;;5055680;28;20498;-56
2021/12/15 04:55:29;;;;;;;19.00;12.57;;;;;;;;;;5055959;28;20419;-58
2021/12/15 04:57:55;;;;;;;19.93;12.90;;;;;;;;;;5055450;28;20407;-60
2021/12/15 05:00:23;;;;;;;16.63;11.83;;;;;;;;;;5055561;28;20408;-55
2021/12/15 05:02:52;;;;;;;18.37;12.83;;;;;;;;;;5055598;28;20414;-63
2021/12/15 05:05:18;;;;;;;19.53;12.20;;;;;;;;;;5055664;28;20848;-61
2021/12/15 05:07:44;;;;;;;18.67;11.90;;;;;;;;;;5055421;28;20431;-59
2021/12/15 05:10:11;;;;;;;18.10;11.37;;;;;;;;;;5055464;28;20761;-60
2021/12/15 05:12:37;;;;;;;18.53;12.17;;;;;;;;;;5055204;28;20478;-61
2021/12/15 05:15:05;;;;;;;16.90;11.10;;;;;;;;;;5055370;28;20407;-59
2021/12/15 05:17:31;;;;;;;18.80;11.40;;;;;;;;;;5055234;28;20900;-62
2021/12/15 05:20:01;;;;;;;18.20;12.63;;;;;;;;;;5055044;28;20455;-55
2021/12/15 05:22:27;;;;;;;17.77;11.83;;;;;;;;;;5055304;28;20408;-60
2021/12/15 05:24:53;;;;;;;17.53;11.47;;;;;;;;;;5055290;28;20406;-56
2021/12/15 05:27:19;;;;;;;16.93;11.63;;;;;;;;;;5055139;28;20820;-61
2021/12/15 05:29:47;;;;;;;19.80;12.03;;;;;;;;;;5053715;28;20924;-55
2021/12/15 05:32:17;;;;;;;20.00;11.67;;;;;;;;;;5055337;28;20510;-56
2021/12/15 05:34:44;;;;;;;16.50;11.20;;;;;;;;;;5054902;28;20955;-58
2021/12/15 05:37:10;;;;;;;18.23;11.90;;;;;;;;;;5054823;28;20912;-56
2021/12/15 05:39:37;;;;;;;16.60;12.07;;;;;;;;;;5054704;28;20415;-55
2021/12/15 05:42:03;;;;;;;17.90;11.80;;;;;;;;;;5054346;28;20431;-57
2021/12/15 05:44:29;;;;;;;18.67;12.57;;;;;;;;;;5054624;28;20418;-54
2021/12/15 05:46:56;;;;;;;18.63;12.20;;;;;;;;;;5054664;28;20415;-51
2021/12/15 05:49:22;;;;;;;19.57;13.07;;;;;;;;;;5054747;28;20911;-54
2021/12/15 05:51:49;;;;;;;19.60;12.50;;;;;;;;;;5054776;28;20823;-57
2021/12/15 05:54:15;;;;;;;23.33;12.83;;;;;;;;;;5054759;28;20908;-55
2021/12/15 05:56:42;;;;;;;20.13;12.90;;;;;;;;;;5054605;28;20903;-53
2021/12/15 05:59:09;;;;;;;22.17;13.57;;;;;;;;;;5054409;28;20443;-56
2021/12/15 06:01:35;;;;;;;17.67;11.70;;;;;;;;;;5054287;28;20738;-56
2021/12/15 06:04:01;;;;;;;17.97;12.43;;;;;;;;;;5054120;28;20876;-54
2021/12/15 06:06:28;;;;;;;20.90;13.87;;;;;;;;;;5054166;28;20418;-54
2021/12/15 06:08:55;;;;;;;21.43;13.40;;;;;;;;;;5054453;28;20768;-57
2021/12/15 06:11:21;;;;;;;23.93;13.47;;;;;;;;;;5054037;28;20455;-54
2021/12/15 06:13:47;;;;;;;22.47;13.80;;;;;;;;;;5053850;28;20444;-53
2021/12/15 06:16:14;;;;;;;22.60;13.53;;;;;;;;;;5054556;28;20411;-55
2021/12/15 06:18:40;;;;;;;23.00;14.03;;;;;;;;;;5054002;28;20412;-54
2021/12/15 06:21:06;;;;;;;21.73;13.30;;;;;;;;;;5053656;28;20462;-54
2021/12/15 06:23:32;;;;;;;22.30;13.43;;;;;;;;;;5053982;28;20845;-53
2021/12/15 06:26:00;;;;;;;20.30;12.37;;;;;;;;;;5053714;28;20495;-55
2021/12/15 06:28:27;;;;;;;22.37;13.57;;;;;;;;;;5053624;28;20404;-55
2021/12/15 06:30:53;;;;;;;19.00;12.80;;;;;;;;;;5053577;28;20447;-55
2021/12/15 06:33:20;;;;;;;19.90;12.13;;;;;;;;;;5052493;28;20431;-54
2021/12/15 06:35:53;;;;;;;22.33;12.83;;;;;;;;;;5053722;28;20403;-55
2021/12/15 06:38:19;;;;;;;27.40;13.50;;;;;;;;;;5053842;28;20420;-55
2021/12/15 06:40:45;;;;;;;19.93;12.13;;;;;;;;;;5053890;28;20478;-55
2021/12/15 06:43:11;;;;;;;21.50;12.67;;;;;;;;;;5053759;28;20411;-54
2021/12/15 06:45:51;;;;;;;21.20;13.50;;;;;;;;;;5051995;28;20396;-54
2021/12/15 06:59:36;;;;;;;20.80;12.97;;;;;;;;;;5036409;28;20811;-54
2021/12/15 07:02:03;;;;;;;19.63;12.53;;;;;;;;;;5053144;28;20481;-55
2021/12/15 07:04:29;;;;;;;21.57;13.30;;;;;;;;;;5053149;28;20415;-56
2021/12/15 07:06:55;;;;;;;18.73;11.50;;;;;;;;;;5053212;28;20403;-55
2021/12/15 07:09:22;;;;;;;19.30;12.73;;;;;;;;;;5053226;28;20753;-57
2021/12/15 07:11:50;;;;;;;17.20;11.83;;;;;;;;;;5053023;28;20859;-55
2021/12/15 07:14:17;;;;;;;19.47;12.17;;;;;;;;;;5053112;28;20804;-54
2021/12/15 07:16:46;;;;;;;16.13;11.97;;;;;;;;;;5053102;28;20423;-54
2021/12/15 07:20:04;;;;;;;17.23;11.53;;;;;;;;;;5053090;28;20408;-56
2021/12/15 07:22:14;;;;;;;19.23;11.90;;;;;;;;;;5049781;28;20418;-55
2021/12/15 07:24:40;;;;;;;18.37;12.17;;;;;;;;;;5052676;28;20764;-55
2021/12/15 07:27:07;;;;;;;18.93;11.87;;;;;;;;;;5052617;28;20404;-56
2021/12/15 07:29:33;;;;;;;22.37;13.13;;;;;;;;;;5052695;28;20931;-57
2021/12/15 07:31:59;;;;;;;22.70;12.80;;;;;;;;;;5052758;28;20553;-54
2021/12/15 07:34:25;;;;;;;20.30;12.40;;;;;;;;;;5052803;28;20407;-56
2021/12/15 07:36:53;;;;;;;15.20;11.10;;;;;;;;;;5052672;28;20438;-58
2021/12/15 07:39:19;;;;;;;18.00;11.70;;;;;;;;;;5052640;28;20404;-54
2021/12/15 07:41:51;;;;;;;25.10;13.23;;;;;;;;;;5052546;28;20941;-56
2021/12/15 07:44:17;;;;;;;18.43;12.37;;;;;;;;;;5052222;28;20447;-58
2021/12/15 07:46:44;;;;;;;17.17;11.97;;;;;;;;;;5050825;28;20420;-53
2021/12/15 07:49:10;;;;;;;17.80;11.80;;;;;;;;;;5052110;28;20458;-54
2021/12/15 07:51:37;;;;;;;17.60;11.70;;;;;;;;;;5052019;28;20470;-54
2021/12/15 07:54:03;;;;;;;19.97;11.80;;;;;;;;;;5052305;28;20798;-56
2021/12/15 07:56:29;;;;;;;15.10;10.80;;;;;;;;;;5052419;28;20412;-60
2021/12/15 07:58:55;;;;;;;18.23;11.93;;;;;;;;;;5052203;28;20408;-64
2021/12/15 08:01:23;;;;;;;17.27;11.90;;;;;;;;;;5052290;28;20407;-63
2021/12/15 08:03:54;;;;;;;17.60;11.87;;;;;;;;;;5052131;28;20566;-64
2021/12/15 08:06:20;;;;;;;16.07;11.87;;;;;;;;;;5053513;28;20522;-62
2021/12/15 08:08:46;;;;;;;16.17;11.40;;;;;;;;;;5056198;28;20903;-60
2021/12/15 08:11:12;;;;;;;15.53;11.53;;;;;;;;;;5056287;28;20475;-56
2021/12/15 08:13:38;;;;;;;15.47;11.10;;;;;;;;;;5056204;28;20752;-58
2021/12/15 08:16:05;;;;;;;18.33;11.53;;;;;;;;;;5056237;28;20443;-57
2021/12/15 08:18:31;;;;;;;16.23;11.40;;;;;;;;;;5056481;28;20466;-56
2021/12/15 08:20:57;;;;;;;17.10;11.07;;;;;;;;;;5056094;28;20463;-56
2021/12/15 08:23:24;;;;;;;18.00;11.17;;;;;;;;;;5054792;28;20761;-57
2021/12/15 08:25:50;;;;;;;17.83;10.57;;;;;;;;;;5056057;28;20416;-56
2021/12/15 08:28:17;;;;;;;17.40;11.20;;;;;;;;;;5055786;28;20442;-54
2021/12/15 08:30:44;;;;;;;15.67;10.93;;;;;;;;;;5056136;28;20780;-57
2021/12/15 08:33:14;;;;;;;14.33;10.93;;;;;;;;;;5055727;28;20419;-56
2021/12/15 08:35:44;;;;;;;14.53;10.47;;;;;;;;;;5054969;28;20426;-57
2021/12/15 08:38:11;;;;;;;21.50;10.80;;;;;;;;;;5071238;28;20426;-57
2021/12/15 08:40:38;;;;;;;18.97;11.23;;;;;;;;;;5056035;28;20412;-57
2021/12/15 08:43:07;;;;;;;15.30;10.93;;;;;;;;;;5058518;28;20978;-57
2021/12/15 08:45:34;;;;;;;13.67;10.27;;;;;;;;;;5058836;28;20399;-59
2021/12/15 08:48:00;;;;;;;14.30;10.40;;;;;;;;;;5053693;28;20442;-60
2021/12/15 08:50:29;;;;;;;10.20;8.47;;;;;;;;;;5053321;28;20412;-59
2021/12/15 08:52:55;;;;;;;14.27;10.40;;;;;;;;;;5053370;28;20463;-58
2021/12/15 08:55:21;;;;;;;14.77;10.70;;;;;;;;;;5052168;28;20400;-57
2021/12/15 08:57:52;;;;;;;12.70;10.07;;;;;;;;;;5052275;28;20447;-62
2021/12/15 09:00:19;;;;;;;15.53;10.30;;;;;;;;;;5052179;28;20495;-60
2021/12/15 09:02:46;;;;;;;20.90;10.80;;;;;;;;;;5052301;28;20422;-59
2021/12/15 09:05:12;;;;;;;14.93;10.70;;;;;;;;;;5052086;28;20982;-57
2021/12/15 09:07:43;;;;;;;13.90;10.53;;;;;;;;;;5052080;28;20900;-59
2021/12/15 09:10:10;;;;;;;13.63;10.40;;;;;;;;;;5052281;28;20415;-56
2021/12/15 09:12:38;;;;;;;12.87;10.03;;;;;;;;;;5052503;28;20477;-57
2021/12/15 09:15:05;;;;;;;13.63;10.30;;;;;;;;;;5051290;28;20411;-57
2021/12/15 09:17:31;;;;;;;11.70;9.70;;;;;;;;;;5052223;28;20430;-61
2021/12/15 09:19:57;;;;;;;15.40;9.50;;;;;;;;;;5052174;28;20454;-56
2021/12/15 09:22:23;;;;;;;14.50;9.40;;;;;;;;;;5052244;28;20469;-58
2021/12/15 09:24:49;;;;;;;13.33;9.90;;;;;;;;;;5052238;28;20799;-58
2021/12/15 09:27:15;;;;;;;13.80;10.00;;;;;;;;;;5052128;28;20771;-56
2021/12/15 09:29:41;;;;;;;15.73;10.20;;;;;;;;;;5052133;28;20477;-55
2021/12/15 09:32:08;;;;;;;14.90;9.80;;;;;;;;;;5052188;28;21157;-56
2021/12/15 09:34:35;;;;;;;12.73;9.47;;;;;;;;;;5051948;28;20442;-56
2021/12/15 09:37:02;;;;;;;13.60;10.43;;;;;;;;;;5052441;28;20504;-59
2021/12/15 09:39:29;;;;;;;12.90;9.33;;;;;;;;;;5052364;28;20426;-56
2021/12/15 09:41:55;;;;;;;12.70;10.00;;;;;;;;;;5051077;28;20423;-55
2021/12/15 09:44:24;;;;;;;12.63;9.20;;;;;;;;;;5053603;28;20404;-55
2021/12/15 10:02:02;;;;;;;11.30;8.70;;;;;;;;;;5051679;28;20418;-56
2021/12/15 10:06:09;;;;;;;13.70;10.03;;;;;;;;;;5051481;28;20491;-55
2021/12/15 10:12:19;;;;;;;12.23;9.00;;;;;;;;;;5051424;28;20972;-55
2021/12/15 10:19:43;;;;;;;15.90;9.80;;;;;;;;;;5050135;28;20458;-59
2021/12/15 10:22:10;;;;;;;10.97;9.10;;;;;;;;;;5050908;28;20479;-51
2021/12/15 10:24:46;;;;;;;12.83;9.53;;;;;;;;;;5051143;28;20434;-55
2021/12/15 10:27:14;;;;;;;17.27;9.73;;;;;;;;;;5050753;28;20418;-55
2021/12/15 10:29:59;;;;;;;13.07;10.47;;;;;;;;;;5050546;28;20399;-55
2021/12/15 10:32:29;;;;;;;16.27;9.80;;;;;;;;;;5050752;28;20489;-57
2021/12/15 10:35:03;;;;;;;12.13;9.93;;;;;;;;;;5051293;28;20427;-55
2021/12/15 10:37:29;;;;;;;12.90;10.23;;;;;;;;;;5050784;28;20403;-55
2021/12/15 10:40:17;;;;;;;11.70;9.30;;;;;;;;;;5050934;28;20808;-57
2021/12/15 10:42:44;;;;;;;12.97;10.13;;;;;;;;;;5049226;28;21148;-57
2021/12/15 10:45:11;;;;;;;12.17;9.00;;;;;;;;;;5050785;28;20448;-57
2021/12/15 10:47:42;;;;;;;13.03;9.47;;;;;;;;;;5051047;28;20832;-55
2021/12/15 10:50:12;;;;;;;13.00;10.17;;;;;;;;;;5050656;28;20447;-55
2021/12/15 10:52:49;;;;;;;13.43;10.30;;;;;;;;;;5050852;28;20466;-56
2021/12/15 10:55:15;;;;;;;12.60;9.70;;;;;;;;;;5050504;28;20410;-56
2021/12/15 10:57:44;;;;;;;13.37;9.97;;;;;;;;;;5050625;28;20719;-57
2021/12/15 11:00:12;;;;;;;13.27;10.10;;;;;;;;;;5049836;28;20765;-55
2021/12/15 11:02:39;;;;;;;13.10;9.90;;;;;;;;;;5049673;28;20420;-58
2021/12/15 11:05:05;;;;;;;12.40;9.73;;;;;;;;;;5050511;28;20418;-61
2021/12/15 11:07:36;;;;;;;12.27;9.40;;;;;;;;;;5050394;28;20457;-58
2021/12/15 11:10:05;;;;;;;13.27;9.53;;;;;;;;;;5050267;28;20745;-57
2021/12/15 11:12:42;;;;;;;14.80;10.13;;;;;;;;;;5050025;28;20475;-57
2021/12/15 11:15:08;;;;;;;11.63;9.67;;;;;;;;;;5050090;28;20399;-60
2021/12/15 11:17:36;;;;;;;10.97;8.73;;;;;;;;;;5050184;28;20416;-56
2021/12/15 11:20:26;;;;;;;11.57;9.67;;;;;;;;;;5049675;28;20439;-60
2021/12/15 11:22:59;;;;;;;11.37;9.73;;;;;;;;;;5043427;28;20407;-60
2021/12/15 11:25:27;;;;;;;10.20;8.57;;;;;;;;;;5049936;28;20418;-56
2021/12/15 11:28:03;;;;;;;11.27;9.70;;;;;;;;;;5050423;28;20411;-64
2021/12/15 11:30:34;;;;;;;12.50;9.00;;;;;;;;;;5050032;28;20776;-56
2021/12/15 11:33:02;;;;;;;14.27;8.73;;;;;;;;;;5050012;28;20581;-59
2021/12/15 11:35:29;;;;;;;13.27;9.70;;;;;;;;;;5049919;28;20538;-57
2021/12/15 11:38:00;;;;;;;12.17;9.60;;;;;;;;;;5049859;28;20421;-63
2021/12/15 11:40:28;;;;;;;10.10;8.87;;;;;;;;;;5048886;28;20507;-58
2021/12/15 11:42:54;;;;;;;11.33;9.57;;;;;;;;;;5053456;28;20414;-68
2021/12/15 11:45:20;;;;;;;11.90;9.80;;;;;;;;;;5050463;28;20416;-59
2021/12/15 11:47:46;;;;;;;10.27;8.70;;;;;;;;;;5049774;28;20418;-59
2021/12/15 11:50:21;;;;;;;13.47;8.67;;;;;;;;;;5049581;28;20447;-62
2021/12/15 11:52:49;;;;;;;10.57;8.57;;;;;;;;;;5048245;28;20463;-66
2021/12/15 11:55:29;;;;;;;9.77;8.77;;;;;;;;;;5050085;28;20415;-60
2021/12/15 11:57:55;;;;;;;10.47;8.60;;;;;;;;;;5050289;28;20417;-60
2021/12/15 12:00:23;;;;;;;10.27;8.73;;;;;;;;;;5050324;28;20419;-62
2021/12/15 12:02:52;;;;;;;8.77;7.90;;;;;;;;;;5049705;28;20408;-65
2021/12/15 12:05:29;;;;;;;9.53;8.27;;;;;;;;;;5049985;28;20477;-62
2021/12/15 12:07:59;;;;;;;11.13;9.23;;;;;;;;;;5050159;28;20502;-57
2021/12/15 12:10:32;;;;;;;11.00;8.17;;;;;;;;;;5049983;28;20453;-59
2021/12/15 12:13:12;;;;;;;10.60;8.47;;;;;;;;;;5049835;28;20525;-56
2021/12/15 12:15:39;;;;;;;11.20;8.93;;;;;;;;;;5049515;28;20418;-63
2021/12/15 12:18:07;;;;;;;11.43;8.37;;;;;;;;;;5049618;28;20995;-61
2021/12/15 12:20:35;;;;;;;8.97;7.50;;;;;;;;;;5049103;28;20459;-56
2021/12/15 12:23:04;;;;;;;10.37;7.80;;;;;;;;;;5049881;28;20411;-59
2021/12/15 12:25:33;;;;;;;9.67;8.27;;;;;;;;;;5049754;28;20455;-58
2021/12/15 12:28:00;;;;;;;9.70;8.63;;;;;;;;;;5050048;28;20907;-56
2021/12/15 12:30:28;;;;;;;9.43;7.87;;;;;;;;;;5048140;28;20419;-56
2021/12/15 12:32:54;;;;;;;8.50;7.47;;;;;;;;;;5049246;28;20474;-59
2021/12/15 12:35:23;;;;;;;8.63;7.83;;;;;;;;;;5047932;28;20407;-58
2021/12/15 12:37:54;;;;;;;7.93;7.23;;;;;;;;;;5047972;28;20880;-62
2021/12/15 12:40:22;;;;;;;8.00;7.07;;;;;;;;;;5049518;28;20750;-59
2021/12/15 12:42:48;;;;;;;8.43;7.40;;;;;;;;;;5049098;28;20457;-61
2021/12/15 12:45:29;;;;;;;8.20;7.40;;;;;;;;;;5049190;28;20507;-61
2021/12/15 12:48:29;;;;;;;10.20;6.93;;;;;;;;;;5049690;28;20416;-59
2021/12/15 12:57:55;;;;;;;7.57;6.90;;;;;;;;;;5049004;28;20415;-58
2021/12/15 12:59:30;;;;;;;7.87;7.17;;;;;;;;;;5052620;28;20415;-55
2021/12/15 13:01:57;;;;;;;7.50;6.80;;;;;;;;;;5052875;28;20494;-56
2021/12/15 13:04:34;;;;;;;7.60;6.90;;;;;;;;;;5053099;28;20773;-56
2021/12/15 13:07:00;;;;;;;7.33;6.60;;;;;;;;;;5052600;28;20417;-55
2021/12/15 13:09:27;;;;;;;8.53;7.40;;;;;;;;;;5052630;28;20465;-59
2021/12/15 13:11:53;;;;;;;9.03;7.30;;;;;;;;;;5052299;28;20789;-57
2021/12/15 13:14:38;;;;;;;9.33;7.30;;;;;;;;;;5052729;28;20903;-62
2021/12/15 13:17:14;;;;;;;7.20;6.60;;;;;;;;;;5052497;28;20408;-56
2021/12/15 13:19:44;;;;;;;7.50;6.80;;;;;;;;;;5052100;28;20450;-58
2021/12/15 13:30:24;;;;;;;7.63;6.87;;;;;;;;;;5048271;28;20764;-62
2021/12/15 13:32:50;;;;;;;7.10;6.47;;;;;;;;;;5052628;28;20505;-56
2021/12/15 13:35:26;;;;;;;8.00;6.60;;;;;;;;;;5052127;28;20991;-60
2021/12/15 13:37:54;;;;;;;8.07;6.10;;;;;;;;;;5052369;28;20419;-59
2021/12/15 13:40:38;;;;;;;7.40;6.50;;;;;;;;;;5052278;28;20487;-58
2021/12/15 13:43:05;;;;;;;6.90;6.20;;;;;;;;;;5051868;28;20439;-58
2021/12/15 13:45:33;;;;;;;6.30;5.80;;;;;;;;;;5052094;28;20410;-62
2021/12/15 13:47:59;;;;;;;7.03;6.27;;;;;;;;;;5052047;28;20971;-60
2021/12/15 13:50:29;;;;;;;7.53;6.83;;;;;;;;;;5051838;28;20417;-57
2021/12/15 13:53:03;;;;;;;6.50;5.90;;;;;;;;;;5051770;28;20456;-59
2021/12/15 13:55:36;;;;;;;5.30;4.90;;;;;;;;;;5050882;28;20419;-59
2021/12/15 13:58:11;;;;;;;7.70;6.93;;;;;;;;;;5051934;28;20766;-61
2021/12/15 14:00:37;;;;;;;7.17;6.57;;;;;;;;;;5051898;28;20407;-61
2021/12/15 14:03:03;;;;;;;7.20;6.50;;;;;;;;;;5051561;28;20404;-58
2021/12/15 14:05:35;;;;;;;11.13;5.93;;;;;;;;;;5051417;28;20507;-62
2021/12/15 14:08:03;;;;;;;8.27;6.67;;;;;;;;;;5051293;28;20738;-59
2021/12/15 14:10:28;;;;;;;6.77;5.90;;;;;;;;;;5051195;28;20408;-59
2021/12/15 14:12:57;;;;;;;9.10;7.10;;;;;;;;;;5051138;28;20533;-59
2021/12/15 14:15:40;;;;;;;7.83;7.07;;;;;;;;;;5051350;28;20769;-58
2021/12/15 14:18:18;;;;;;;8.03;7.33;;;;;;;;;;5051318;28;20861;-58
2021/12/15 14:20:51;;;;;;;7.40;6.70;;;;;;;;;;5051420;28;20789;-60
2021/12/15 14:23:19;;;;;;;8.27;7.30;;;;;;;;;;5050990;28;20503;-59
2021/12/15 14:25:47;;;;;;;8.03;7.00;;;;;;;;;;5051600;28;20458;-58
2021/12/15 14:28:17;;;;;;;8.93;7.80;;;;;;;;;;5051642;28;20539;-57
2021/12/15 14:30:45;;;;;;;9.37;7.20;;;;;;;;;;5051251;28;20419;-58
2021/12/15 14:33:18;;;;;;;8.50;7.10;;;;;;;;;;5050694;28;20455;-59
2021/12/15 14:35:44;;;;;;;8.10;7.30;;;;;;;;;;5050933;28;20741;-60
2021/12/15 14:38:10;;;;;;;8.93;6.70;;;;;;;;;;5050850;28;20412;-58
2021/12/15 14:40:36;;;;;;;11.13;7.33;;;;;;;;;;5051004;28;20764;-63
2021/12/15 14:43:02;;;;;;;8.77;7.53;;;;;;;;;;5051235;28;20414;-61
2021/12/15 14:45:28;;;;;;;8.37;7.53;;;;;;;;;;5050339;28;20439;-59
2021/12/15 14:47:54;;;;;;;8.50;7.70;;;;;;;;;;5050522;28;20500;-57
2021/12/15 14:50:21;;;;;;;8.20;7.30;;;;;;;;;;5050731;28;20414;-57
2021/12/15 14:52:52;;;;;;;9.10;7.33;;;;;;;;;;5050601;28;20467;-61
2021/12/15 14:55:27;;;;;;;8.50;7.60;;;;;;;;;;5050784;28;20426;-56
2021/12/15 14:57:53;;;;;;;8.77;7.87;;;;;;;;;;5050777;28;20545;-57
2021/12/15 15:00:25;;;;;;;8.03;7.33;;;;;;;;;;5051025;28;20845;-56
2021/12/15 15:02:53;;;;;;;8.00;7.20;;;;;;;;;;5050840;28;20942;-55
2021/12/15 15:05:25;;;;;;;8.97;7.40;;;;;;;;;;5050641;28;20396;-55
2021/12/15 15:08:01;;;;;;;9.23;7.77;;;;;;;;;;5050281;28;20407;-59
2021/12/15 15:10:28;;;;;;;9.60;7.33;;;;;;;;;;5050444;28;20404;-59
2021/12/15 15:12:54;;;;;;;8.83;7.30;;;;;;;;;;5050144;28;20554;-56
2021/12/15 15:15:24;;;;;;;8.60;7.80;;;;;;;;;;5049962;28;20466;-56
2021/12/15 15:17:53;;;;;;;11.10;8.10;;;;;;;;;;5050182;28;20423;-60
2021/12/15 15:20:24;;;;;;;10.77;7.80;;;;;;;;;;5049955;28;20463;-58
2021/12/15 15:22:51;;;;;;;9.23;8.33;;;;;;;;;;5049878;28;21001;-57
2021/12/15 15:25:18;;;;;;;8.10;7.40;;;;;;;;;;5049832;28;20491;-58
2021/12/15 15:27:47;;;;;;;8.00;7.17;;;;;;;;;;5050139;28;20408;-58
2021/12/15 15:30:14;;;;;;;10.63;8.30;;;;;;;;;;5049660;28;20922;-56
2021/12/15 15:32:43;;;;;;;9.33;8.30;;;;;;;;;;5050484;28;20475;-61
2021/12/15 15:35:09;;;;;;;11.40;8.80;;;;;;;;;;5049247;28;21681;-56
2021/12/15 15:37:35;;;;;;;16.93;9.07;;;;;;;;;;5050231;28;20510;-57
2021/12/15 15:40:07;;;;;;;9.70;8.30;;;;;;;;;;5049460;28;20423;-58
2021/12/15 15:42:34;;;;;;;9.83;8.40;;;;;;;;;;5050131;28;20416;-57
2021/12/15 15:45:00;;;;;;;9.90;7.97;;;;;;;;;;5050256;28;20569;-62
2021/12/15 15:47:26;;;;;;;10.60;8.70;;;;;;;;;;5049472;28;20439;-56
2021/12/15 15:50:04;;;;;;;8.60;7.33;;;;;;;;;;5050024;28;20900;-60
2021/12/15 15:52:30;;;;;;;8.50;7.70;;;;;;;;;;5049590;28;20471;-60
2021/12/15 15:54:56;;;;;;;17.70;9.23;;;;;;;;;;5049560;28;20530;-55
2021/12/15 15:57:22;;;;;;;8.87;7.83;;;;;;;;;;5049981;28;20400;-56